Pagina principale
METAR-TAF:

METAR-TAF

Aeroporti :

Montichiari

Brescia, Italia

latitudine: 45-24-02N, longitudine: 010-18-59E, altezza: 104 m

Osservazione

Il bollettino è stato emesso 47 minuti fa, alle 00:50 UTC
Vento 7 kt da est/nord-est
Temperature 22°C
Umidità 50%
Pressione 1018 hPa
Visibilità 10 km o più

METAR: LIPO 150050Z AUTO 06007KT 9999 BKN049/// 22/11 Q1018

Ora: 03:37 (01:37 UTC)

Previsione

Il bollettino è stato emesso 2 ore e 37 minuti fa, alle 23:00 UTC
Previsione valida dal 15 alle 00 UTC al 15 alle 24 UTC
Vento 7 kt da est/nord-est
Visibilità 10 km o più
Nubi sparse ad un'altezza di 5000 ft

TAF: LIPO 142300Z 1500/1524 06007KT 9999 SCT050

Osservazioni e previsioni meteorologiche di più di 4000 aeroporti (messaggi METAR e TAF).

Le stazioni disponibili sono rappresentate dai dischi gialli e rossi sulla carta.

Puntare il mouse per vedere il nome della stazione.

Clicca sopra per visualizzare le osservazioni e previsioni meteorologiche.

Per cambiare la mappa : fare clic sui pulsanti verdi con una croce nera per ingrandire, il pulsante verde con un trattino per diminuire, o sulla freccia verde per le mappe adiacenti.


METAR-TAF: